createdAt,value
2022-09-11T00:00:26.634Z,101141.50
2022-09-11T00:02:56.119Z,101137.94
2022-09-11T00:05:26.005Z,101136.81
2022-09-11T00:07:56.937Z,101139.19
2022-09-11T00:10:29.046Z,101134.91
2022-09-11T00:12:58.698Z,101133.22
2022-09-11T00:15:28.516Z,101130.91
2022-09-11T00:17:58.842Z,101128.47
2022-09-11T00:20:28.846Z,101115.34
2022-09-11T00:22:58.591Z,101118.72
2022-09-11T00:25:30.691Z,101110.38
2022-09-11T00:28:00.089Z,101101.63
2022-09-11T00:30:30.002Z,101105.63
2022-09-11T00:32:59.673Z,101103.78
2022-09-11T00:35:29.216Z,101098.47
2022-09-11T00:37:58.628Z,101098.81
2022-09-11T00:40:30.591Z,101093.50
2022-09-11T00:43:00.322Z,101085.66
2022-09-11T00:45:32.225Z,101081.31
2022-09-11T00:48:03.721Z,101081.16
2022-09-11T00:50:33.997Z,101081.63
2022-09-11T00:53:07.458Z,101077.50
2022-09-11T00:55:40.581Z,101076.25
2022-09-11T00:58:11.519Z,101059.16
2022-09-11T01:00:41.416Z,101053.69
2022-09-11T01:03:10.809Z,101051.34
2022-09-11T01:05:43.474Z,101040.78
2022-09-11T01:08:14.515Z,101034.69
2022-09-11T01:10:56.308Z,101049.38
2022-09-11T01:13:30.608Z,101046.56
2022-09-11T01:16:07.050Z,101038.50
2022-09-11T01:18:39.217Z,101045.84
2022-09-11T01:21:34.382Z,101048.44
2022-09-11T01:24:13.107Z,101050.75
2022-09-11T01:27:08.402Z,101050.25
2022-09-11T01:29:43.368Z,101039.75
2022-09-11T01:32:17.570Z,101050.75
2022-09-11T01:34:50.430Z,101045.22
2022-09-11T01:37:25.183Z,101041.91
2022-09-11T01:39:59.086Z,101045.38
2022-09-11T01:42:31.473Z,101052.06
2022-09-11T01:45:03.473Z,101046.00
2022-09-11T01:47:33.249Z,101050.88
2022-09-11T01:50:05.737Z,101048.41
2022-09-11T01:52:38.561Z,101038.81
2022-09-11T01:55:13.254Z,101041.13
2022-09-11T01:57:45.674Z,101048.19
2022-09-11T02:00:17.782Z,101045.28
2022-09-11T02:02:49.108Z,101047.22
2022-09-11T02:05:20.430Z,101041.88
2022-09-11T02:07:53.198Z,101045.16
2022-09-11T02:10:26.196Z,101046.00
2022-09-11T02:12:58.269Z,101051.97
2022-09-11T02:15:36.530Z,101054.47
2022-09-11T02:18:10.309Z,101047.66
2022-09-11T02:20:39.714Z,101049.31
2022-09-11T02:23:09.309Z,101053.66
2022-09-11T02:25:39.957Z,101051.06
2022-09-11T02:28:09.348Z,101051.88
2022-09-11T02:30:41.929Z,101048.31
2022-09-11T02:33:29.757Z,101055.38
2022-09-11T02:36:07.630Z,101053.56
2022-09-11T02:38:42.673Z,101047.44
2022-09-11T02:41:18.086Z,101055.22
2022-09-11T02:43:59.106Z,101053.63
2022-09-11T02:47:00.943Z,101046.72
2022-09-11T02:49:42.256Z,101045.88
2022-09-11T02:52:20.099Z,101037.47
2022-09-11T02:54:55.592Z,101034.81
2022-09-11T02:57:30.332Z,101034.88
2022-09-11T03:00:01.635Z,101038.94
2022-09-11T03:02:36.413Z,101046.09
2022-09-11T03:05:09.379Z,101044.25
2022-09-11T03:07:39.193Z,101039.94
2022-09-11T03:10:11.686Z,101040.81
2022-09-11T03:12:41.798Z,101041.66
2022-09-11T03:15:12.569Z,101045.94
2022-09-11T03:17:42.916Z,101044.56
2022-09-11T03:20:15.769Z,101046.09
2022-09-11T03:22:45.169Z,101034.81
2022-09-11T03:25:15.154Z,101040.13
2022-09-11T03:27:44.542Z,101038.59
2022-09-11T03:30:14.930Z,101037.81
2022-09-11T03:32:44.301Z,101036.22
2022-09-11T03:35:16.620Z,101036.91
2022-09-11T03:37:47.497Z,101041.47
2022-09-11T03:40:16.949Z,101042.78
2022-09-11T03:42:46.338Z,101041.13
2022-09-11T03:45:16.258Z,101045.22
2022-09-11T03:47:45.690Z,101046.00
2022-09-11T03:50:17.889Z,101044.47
2022-09-11T03:52:47.415Z,101050.06
2022-09-11T03:55:16.827Z,101049.44
2022-09-11T03:57:46.402Z,101054.47
2022-09-11T04:00:16.102Z,101054.59
2022-09-11T04:02:45.474Z,101054.38
2022-09-11T04:05:17.995Z,101049.91
2022-09-11T04:07:48.954Z,101058.59
2022-09-11T04:10:19.653Z,101057.75
2022-09-11T04:12:49.076Z,101058.84
2022-09-11T04:15:18.577Z,101059.56
2022-09-11T04:17:49.219Z,101055.22
2022-09-11T04:20:21.173Z,101055.16
2022-09-11T04:22:50.853Z,101054.38
2022-09-11T04:25:20.376Z,101050.97
2022-09-11T04:27:49.770Z,101051.06
2022-09-11T04:30:19.882Z,101054.38
2022-09-11T04:32:50.371Z,101057.81
2022-09-11T04:35:22.410Z,101062.19
2022-09-11T04:37:51.786Z,101068.34
2022-09-11T04:40:21.701Z,101068.97
2022-09-11T04:42:51.115Z,101071.53
2022-09-11T04:45:20.491Z,101076.66
2022-09-11T04:47:52.982Z,101074.88
2022-09-11T04:50:24.938Z,101075.97
2022-09-11T04:52:54.534Z,101078.63
2022-09-11T04:55:24.181Z,101084.75
2022-09-11T04:57:54.014Z,101081.34
2022-09-11T05:00:25.089Z,101083.94
2022-09-11T05:02:54.632Z,101085.69
2022-09-11T05:05:26.597Z,101086.69
2022-09-11T05:07:55.975Z,101087.56
2022-09-11T05:10:27.258Z,101090.97
2022-09-11T05:12:56.622Z,101090.28
2022-09-11T05:15:25.997Z,101090.22
2022-09-11T05:17:55.392Z,101097.91
2022-09-11T05:20:27.322Z,101100.50
2022-09-11T05:22:57.122Z,101099.72
2022-09-11T05:25:26.568Z,101112.44
2022-09-11T05:27:55.959Z,101112.38
2022-09-11T05:30:25.353Z,101105.00
2022-09-11T05:32:57.234Z,101097.88
2022-09-11T05:35:32.329Z,101094.81
2022-09-11T05:38:01.944Z,101094.81
2022-09-11T05:40:31.317Z,101096.81
2022-09-11T05:43:00.682Z,101090.31
2022-09-11T05:45:30.101Z,101071.88
2022-09-11T05:47:59.514Z,101065.13
2022-09-11T05:50:32.790Z,101049.88
2022-09-11T05:53:02.154Z,101056.25
2022-09-11T05:55:31.530Z,101052.63
2022-09-11T05:58:00.913Z,101050.38
2022-09-11T06:00:30.497Z,101056.19
2022-09-11T06:02:59.890Z,101054.38
2022-09-11T06:05:31.870Z,101058.78
2022-09-11T06:08:01.528Z,101073.00
2022-09-11T06:10:30.918Z,101096.81
2022-09-11T06:13:00.410Z,101108.03
2022-09-11T06:15:45.632Z,101127.00
2022-09-11T06:18:16.239Z,101148.59
2022-09-11T06:20:57.973Z,101167.31
2022-09-11T06:23:27.814Z,101172.44
2022-09-11T06:25:57.267Z,101214.03
2022-09-11T06:28:26.718Z,101260.25
2022-09-11T06:30:56.171Z,101293.69
2022-09-11T06:33:25.539Z,101315.22
2022-09-11T06:36:05.030Z,101328.03
2022-09-11T06:38:34.605Z,101334.75
2022-09-11T06:41:05.038Z,101340.47
2022-09-11T06:43:34.958Z,101337.66
2022-09-11T06:46:07.755Z,101338.63
2022-09-11T06:48:37.195Z,101338.47
2022-09-11T06:51:11.387Z,101339.47
2022-09-11T06:53:41.357Z,101338.25
2022-09-11T06:56:12.963Z,101338.47
2022-09-11T06:58:42.386Z,101334.34
2022-09-11T07:01:14.676Z,101328.84
2022-09-11T07:03:46.628Z,101324.53
2022-09-11T07:06:21.577Z,101326.41
2022-09-11T07:08:53.500Z,101329.94
2022-09-11T07:11:23.564Z,101335.81
2022-09-11T07:13:53.893Z,101337.50
2022-09-11T07:16:23.385Z,101342.53
2022-09-11T07:18:53.026Z,101354.22
2022-09-11T07:21:27.267Z,101349.22
2022-09-11T07:23:58.004Z,101361.59
2022-09-11T07:26:30.906Z,101365.25
2022-09-11T07:29:00.746Z,101366.41
2022-09-11T07:31:32.849Z,101377.47
2022-09-11T07:34:02.766Z,101381.03
2022-09-11T07:36:37.483Z,101382.19
2022-09-11T07:39:07.015Z,101383.13
2022-09-11T07:41:36.416Z,101394.28
2022-09-11T07:44:07.109Z,101391.50
2022-09-11T07:46:40.262Z,101401.97
2022-09-11T07:49:10.213Z,101400.47
2022-09-11T07:51:42.454Z,101397.50
2022-09-11T07:54:12.383Z,101412.34
2022-09-11T07:56:41.762Z,101424.88
2022-09-11T07:59:11.593Z,101425.78
2022-09-11T08:01:42.334Z,101429.81
2022-09-11T08:04:14.446Z,101433.63
2022-09-11T08:06:46.410Z,101436.31
2022-09-11T08:09:17.029Z,101437.31
2022-09-11T08:11:48.795Z,101438.38
2022-09-11T08:14:18.483Z,101445.69
2022-09-11T08:16:48.395Z,101442.63
2022-09-11T08:19:20.131Z,101452.66
2022-09-11T08:21:52.876Z,101454.25
2022-09-11T08:24:24.427Z,101470.00
2022-09-11T08:26:53.861Z,101472.00
2022-09-11T08:29:24.266Z,101491.34
2022-09-11T08:31:53.702Z,101492.78
2022-09-11T08:34:23.313Z,101498.78
2022-09-11T08:36:55.280Z,101517.25
2022-09-11T08:39:24.982Z,101523.84
2022-09-11T08:41:57.318Z,101524.38
2022-09-11T08:44:28.800Z,101529.47
2022-09-11T08:47:02.293Z,101541.28
2022-09-11T08:49:36.541Z,101550.44
2022-09-11T08:52:08.825Z,101559.00
2022-09-11T08:54:40.057Z,101564.78
2022-09-11T08:57:17.158Z,101563.00
2022-09-11T08:59:59.768Z,101572.97
2022-09-11T09:02:43.174Z,101577.19
2022-09-11T09:05:21.038Z,101566.94
2022-09-11T09:08:04.581Z,101560.50
2022-09-11T09:10:47.395Z,101568.81
2022-09-11T09:13:33.664Z,101572.66
2022-09-11T09:16:09.593Z,101577.31
2022-09-11T09:18:41.826Z,101583.84
2022-09-11T09:21:15.319Z,101582.09
2022-09-11T09:23:51.174Z,101587.25
2022-09-11T09:26:21.490Z,101588.81
2022-09-11T09:28:53.050Z,101591.22
2022-09-11T09:31:24.101Z,101595.59
2022-09-11T09:33:57.239Z,101599.38
2022-09-11T09:36:32.598Z,101604.69
2022-09-11T09:39:05.394Z,101603.28
2022-09-11T09:41:50.505Z,101613.38
2022-09-11T09:44:28.359Z,101605.94
2022-09-11T09:46:59.437Z,101599.03
2022-09-11T09:49:30.390Z,101603.47
2022-09-11T09:52:04.517Z,101599.69
2022-09-11T09:54:37.650Z,101608.69
2022-09-11T09:57:10.401Z,101600.03
2022-09-11T09:59:43.178Z,101609.84
2022-09-11T10:02:12.664Z,101607.09
2022-09-11T10:04:42.193Z,101607.84
2022-09-11T10:07:14.187Z,101611.19
2022-09-11T10:09:51.555Z,101616.66
2022-09-11T10:12:24.357Z,101620.41
2022-09-11T10:14:55.216Z,101620.97
2022-09-11T10:17:26.653Z,101632.69
2022-09-11T10:19:57.925Z,101638.47
2022-09-11T10:22:32.485Z,101652.94
2022-09-11T10:25:07.213Z,101650.88
2022-09-11T10:27:40.989Z,101653.22
2022-09-11T10:30:27.518Z,101645.97
2022-09-11T10:33:03.090Z,101640.59
2022-09-11T10:35:34.262Z,101642.03
2022-09-11T10:38:11.438Z,101642.78
2022-09-11T10:40:47.325Z,101653.44
2022-09-11T10:43:26.726Z,101651.75
2022-09-11T10:46:07.156Z,101659.19
2022-09-11T10:48:43.098Z,101642.41
2022-09-11T10:51:13.797Z,101636.34
2022-09-11T10:53:53.442Z,101651.75
2022-09-11T10:56:25.682Z,101663.56
2022-09-11T10:58:55.865Z,101656.41
2022-09-11T11:01:26.175Z,101664.91
2022-09-11T11:03:56.002Z,101643.44
2022-09-11T11:06:33.353Z,101654.06
2022-09-11T11:09:10.829Z,101642.50
2022-09-11T11:11:55.688Z,101639.06
2022-09-11T11:14:54.094Z,101641.53
2022-09-11T11:17:31.767Z,101653.19
2022-09-11T11:20:11.787Z,101641.94
2022-09-11T11:23:01.020Z,101646.72
2022-09-11T11:25:36.093Z,101643.31
2022-09-11T11:28:25.230Z,101649.97
2022-09-11T11:31:01.346Z,101653.44
2022-09-11T11:33:59.323Z,101653.28
2022-09-11T11:36:34.587Z,101651.72
2022-09-11T11:39:11.570Z,101648.25
2022-09-11T11:41:45.174Z,101647.63
2022-09-11T11:44:21.196Z,101641.47
2022-09-11T11:46:55.538Z,101641.41
2022-09-11T11:49:30.147Z,101635.94
2022-09-11T11:52:05.457Z,101639.34
2022-09-11T11:54:41.130Z,101642.69
2022-09-11T11:57:14.234Z,101662.53
2022-09-11T11:59:53.730Z,101687.00
2022-09-11T12:02:27.319Z,101698.94
2022-09-11T12:05:01.098Z,101709.13
2022-09-11T12:07:33.087Z,101708.06
2022-09-11T12:10:03.845Z,101712.38
2022-09-11T12:12:36.636Z,101712.78
2022-09-11T12:15:11.526Z,101722.06
2022-09-11T12:17:41.661Z,101721.81
2022-09-11T12:20:33.871Z,101716.41
2022-09-11T12:23:04.333Z,101714.75
2022-09-11T12:26:03.626Z,101714.53
2022-09-11T12:28:33.342Z,101698.78
2022-09-11T12:31:07.689Z,101682.66
2022-09-11T12:33:58.133Z,101688.94
2022-09-11T12:36:33.822Z,101679.69
2022-09-11T12:39:06.118Z,101690.72
2022-09-11T12:41:37.789Z,101707.34
2022-09-11T12:44:08.669Z,101722.13
2022-09-11T12:47:17.163Z,101712.00
2022-09-11T12:49:57.236Z,101720.34
2022-09-11T12:52:35.670Z,101725.88
2022-09-11T12:55:29.920Z,101715.94
2022-09-11T12:58:02.494Z,101747.69
2022-09-11T13:00:38.291Z,101743.19
2022-09-11T13:03:09.122Z,101762.91
2022-09-11T13:05:42.341Z,101738.25
2022-09-11T13:08:22.296Z,101740.19
2022-09-11T13:10:51.686Z,101809.19
2022-09-11T13:13:41.667Z,101846.97
2022-09-11T13:16:20.705Z,102030.75
2022-09-11T13:18:50.089Z,102173.88
2022-09-11T13:21:26.309Z,102192.19
2022-09-11T13:23:56.779Z,102170.75
2022-09-11T13:26:30.321Z,102107.16
2022-09-11T13:29:01.638Z,102052.09
2022-09-11T13:31:36.341Z,102044.72
2022-09-11T13:34:07.210Z,102028.88
2022-09-11T13:36:39.702Z,102006.47
2022-09-11T13:39:10.210Z,101966.31
2022-09-11T13:41:43.759Z,101953.84
2022-09-11T13:44:15.021Z,101961.56
2022-09-11T13:46:53.529Z,101984.63
2022-09-11T13:49:31.216Z,102012.97
2022-09-11T13:52:03.411Z,102034.53
2022-09-11T13:54:34.362Z,102034.53
2022-09-11T13:57:20.874Z,102032.34
2022-09-11T13:59:54.093Z,101996.81
2022-09-11T14:02:50.690Z,102031.56
2022-09-11T14:05:23.469Z,101970.19
2022-09-11T14:08:00.394Z,101943.31
2022-09-11T14:10:32.462Z,101822.31
2022-09-11T14:13:07.127Z,101822.81
2022-09-11T14:15:40.796Z,101897.63
2022-09-11T14:18:15.587Z,101969.03
2022-09-11T14:20:46.830Z,102023.28
2022-09-11T14:23:23.981Z,101972.75
2022-09-11T14:26:14.841Z,101997.69
2022-09-11T14:29:02.470Z,102053.94
2022-09-11T14:31:39.969Z,102040.75
2022-09-11T14:34:20.845Z,102052.19
2022-09-11T14:36:53.169Z,102029.25
2022-09-11T14:39:33.734Z,102020.53
2022-09-11T14:42:04.959Z,102011.81
2022-09-11T14:44:34.869Z,102015.97
2022-09-11T14:47:04.547Z,101987.84
2022-09-11T14:49:33.937Z,102002.59
2022-09-11T14:52:03.676Z,102010.69
2022-09-11T14:54:35.670Z,101996.50
2022-09-11T14:57:05.073Z,102023.50
2022-09-11T14:59:35.050Z,101999.81
2022-09-11T15:02:04.915Z,102001.56
2022-09-11T15:04:34.464Z,101987.84
2022-09-11T15:07:06.221Z,101990.00
2022-09-11T15:09:39.651Z,101997.72
2022-09-11T15:12:10.289Z,102003.69
2022-09-11T15:14:58.538Z,102046.03
2022-09-11T15:17:31.475Z,102030.63
2022-09-11T15:20:01.726Z,102042.69
2022-09-11T15:22:31.476Z,102035.69
2022-09-11T15:25:03.661Z,102038.00
2022-09-11T15:27:33.204Z,102035.53
2022-09-11T15:30:03.244Z,102031.81
2022-09-11T15:32:32.663Z,102033.91
2022-09-11T15:35:02.169Z,102033.41
2022-09-11T15:37:31.567Z,102018.63
2022-09-11T15:40:04.108Z,102026.53
2022-09-11T15:42:39.463Z,102006.44
2022-09-11T15:45:11.077Z,102001.22
2022-09-11T15:47:40.470Z,101991.63
2022-09-11T15:50:11.398Z,102003.84
2022-09-11T15:52:43.118Z,102003.00
2022-09-11T15:55:15.144Z,101996.28
2022-09-11T15:57:44.513Z,101984.00
2022-09-11T16:00:15.332Z,101962.44
2022-09-11T16:02:44.705Z,101911.50
2022-09-11T16:05:14.835Z,101867.00
2022-09-11T16:07:44.208Z,101822.56
2022-09-11T16:10:16.210Z,101803.28
2022-09-11T16:12:46.402Z,101804.56
2022-09-11T16:15:15.770Z,101807.72
2022-09-11T16:17:45.161Z,101796.22
2022-09-11T16:20:15.378Z,101779.59
2022-09-11T16:22:45.490Z,101765.59
2022-09-11T16:25:18.385Z,101750.66
2022-09-11T16:27:47.768Z,101730.25
2022-09-11T16:30:43.332Z,101706.78
2022-09-11T16:33:06.758Z,101691.59
2022-09-11T16:35:36.875Z,101688.94
2022-09-11T16:38:07.373Z,101678.63
2022-09-11T16:40:39.782Z,101675.31
2022-09-11T16:43:09.337Z,101683.91
2022-09-11T16:45:39.959Z,101688.84
2022-09-11T16:48:09.848Z,101691.13
2022-09-11T16:50:39.216Z,101680.09
2022-09-11T16:53:08.608Z,101690.63
2022-09-11T16:55:40.920Z,101695.03
2022-09-11T16:58:10.905Z,101707.66
2022-09-11T17:00:43.092Z,101717.88
2022-09-11T17:03:12.883Z,101709.59
2022-09-11T17:05:49.214Z,101701.59
2022-09-11T17:08:19.626Z,101711.72
2022-09-11T17:10:56.954Z,101702.06
2022-09-11T17:13:27.987Z,101701.09
2022-09-11T17:15:57.985Z,101704.56
2022-09-11T17:18:27.361Z,101710.69
2022-09-11T17:20:58.908Z,101712.56
2022-09-11T17:23:28.320Z,101706.22
2022-09-11T17:26:00.327Z,101706.97
2022-09-11T17:28:29.693Z,101715.78
2022-09-11T17:31:03.655Z,101721.97
2022-09-11T17:33:33.903Z,101724.47
2022-09-11T17:36:03.285Z,101724.47
2022-09-11T17:38:32.769Z,101720.84
2022-09-11T17:41:07.127Z,101729.50
2022-09-11T17:43:37.448Z,101732.91
2022-09-11T17:46:08.368Z,101725.94
2022-09-11T17:48:38.398Z,101732.00
2022-09-11T17:51:10.731Z,101731.81
2022-09-11T17:53:41.499Z,101730.06
2022-09-11T17:56:14.961Z,101741.34
2022-09-11T17:58:45.261Z,101733.34
2022-09-11T18:01:16.924Z,101735.75
2022-09-11T18:03:47.084Z,101732.13
2022-09-11T18:06:21.882Z,101728.53
2022-09-11T18:08:51.305Z,101725.88
2022-09-11T18:11:23.249Z,101721.47
2022-09-11T18:13:53.638Z,101730.84
2022-09-11T18:16:23.089Z,101726.25
2022-09-11T18:18:52.543Z,101715.59
2022-09-11T18:21:21.965Z,101714.50
2022-09-11T18:23:51.365Z,101720.41
2022-09-11T18:26:27.257Z,101717.81
2022-09-11T18:29:00.102Z,101717.81
2022-09-11T18:31:31.602Z,101717.75
2022-09-11T18:34:02.126Z,101707.91
2022-09-11T18:36:32.710Z,101709.50
2022-09-11T18:39:03.639Z,101710.28
2022-09-11T18:41:37.257Z,101708.44
2022-09-11T18:44:08.709Z,101713.53
2022-09-11T18:46:38.592Z,101716.69
2022-09-11T18:49:08.650Z,101712.06
2022-09-11T18:51:38.546Z,101716.22
2022-09-11T18:54:08.542Z,101709.88
2022-09-11T18:56:40.909Z,101713.16
2022-09-11T18:59:10.530Z,101720.69
2022-09-11T19:01:41.285Z,101707.72
2022-09-11T19:04:12.623Z,101703.50
2022-09-11T19:06:42.662Z,101698.09
2022-09-11T19:09:13.421Z,101705.13
2022-09-11T19:11:45.774Z,101711.34
2022-09-11T19:14:15.700Z,101706.56
2022-09-11T19:16:45.886Z,101701.34
2022-09-11T19:19:15.258Z,101693.63
2022-09-11T19:21:44.618Z,101690.75
2022-09-11T19:24:14.098Z,101692.34
2022-09-11T19:26:46.254Z,101686.28
2022-09-11T19:29:15.975Z,101687.53
2022-09-11T19:31:45.957Z,101685.47
2022-09-11T19:34:15.902Z,101690.44
2022-09-11T19:36:45.942Z,101680.03
2022-09-11T19:39:16.057Z,101678.91
2022-09-11T19:41:48.006Z,101670.94
2022-09-11T19:44:20.785Z,101667.22
2022-09-11T19:46:53.446Z,101653.84
2022-09-11T19:49:23.472Z,101649.25
2022-09-11T19:51:54.727Z,101643.88
2022-09-11T19:54:24.594Z,101635.66
2022-09-11T19:56:56.538Z,101628.81
2022-09-11T19:59:26.197Z,101625.88
2022-09-11T20:01:55.594Z,101621.34
2022-09-11T20:04:25.034Z,101615.19
2022-09-11T20:09:31.894Z,101602.06
2022-09-11T20:12:04.897Z,101593.84
2022-09-11T20:14:34.394Z,101588.63
2022-09-11T20:17:05.089Z,101582.28
2022-09-11T20:19:34.446Z,101576.84
2022-09-11T20:22:05.747Z,101574.09
2022-09-11T20:24:35.129Z,101570.25
2022-09-11T20:27:07.389Z,101568.09
2022-09-11T20:29:38.370Z,101560.22
2022-09-11T20:32:08.352Z,101560.09
2022-09-11T20:34:37.730Z,101559.38
2022-09-11T20:37:10.126Z,101552.69
2022-09-11T20:39:39.969Z,101543.13
2022-09-11T20:42:13.453Z,101550.25
2022-09-11T20:44:42.935Z,101542.31
2022-09-11T20:47:14.114Z,101547.03
2022-09-11T20:49:43.490Z,101535.06
2022-09-11T20:52:13.238Z,101525.69
2022-09-11T20:54:43.029Z,101525.22
2022-09-11T20:57:15.003Z,101519.91
2022-09-11T20:59:45.316Z,101516.22
2022-09-11T21:02:15.331Z,101513.25
2022-09-11T21:04:44.730Z,101505.72
2022-09-11T21:07:14.117Z,101504.47
2022-09-11T21:09:43.512Z,101499.28
2022-09-11T21:12:15.458Z,101500.53
2022-09-11T21:14:45.804Z,101497.44
2022-09-11T21:17:15.338Z,101498.19
2022-09-11T21:19:45.602Z,101493.72
2022-09-11T21:22:15.100Z,101488.34
2022-09-11T21:24:44.894Z,101492.34
2022-09-11T21:27:16.854Z,101481.84
2022-09-11T21:29:46.230Z,101478.69
2022-09-11T21:32:15.602Z,101477.09
2022-09-11T21:34:44.975Z,101473.00
2022-09-11T21:37:14.329Z,101472.75
2022-09-11T21:39:43.724Z,101470.50
2022-09-11T21:42:15.694Z,101467.69
2022-09-11T21:44:45.079Z,101464.09
2022-09-11T21:47:14.466Z,101458.97
2022-09-11T21:49:43.827Z,101456.31
2022-09-11T21:52:13.261Z,101454.75
2022-09-11T21:54:42.638Z,101450.25
2022-09-11T21:57:12.022Z,101442.31
2022-09-11T21:59:43.957Z,101433.41
2022-09-11T22:02:13.782Z,101431.09
2022-09-11T22:04:43.182Z,101426.56
2022-09-11T22:07:12.577Z,101431.56
2022-09-11T22:09:42.070Z,101424.28
2022-09-11T22:12:11.554Z,101432.31
2022-09-11T22:14:41.014Z,101432.13
2022-09-11T22:17:13.350Z,101425.97
2022-09-11T22:19:45.849Z,101422.41
2022-09-11T22:22:15.414Z,101429.22
2022-09-11T22:24:45.030Z,101426.56
2022-09-11T22:27:14.458Z,101432.81
2022-09-11T22:29:46.916Z,101436.16
2022-09-11T22:32:19.119Z,101432.13
2022-09-11T22:34:48.537Z,101434.00
2022-09-11T22:37:17.961Z,101432.75
2022-09-11T22:39:47.376Z,101441.66
2022-09-11T22:42:16.760Z,101433.94
2022-09-11T22:44:46.124Z,101434.06
2022-09-11T22:47:15.494Z,101438.03
2022-09-11T22:49:47.453Z,101435.06
2022-09-11T22:52:16.849Z,101430.22
2022-09-11T22:54:47.504Z,101434.50
2022-09-11T22:57:16.875Z,101439.41
2022-09-11T22:59:47.081Z,101440.75
2022-09-11T23:02:17.276Z,101444.78
2022-09-11T23:05:09.294Z,101443.06
2022-09-11T23:07:36.070Z,101442.66
2022-09-11T23:10:05.670Z,101441.47
2022-09-11T23:12:35.253Z,101440.47
2022-09-11T23:15:05.791Z,101442.31
2022-09-11T23:17:35.165Z,101435.44
2022-09-11T23:20:08.391Z,101440.13
2022-09-11T23:22:37.804Z,101436.75
2022-09-11T23:25:07.826Z,101435.47
2022-09-11T23:27:37.209Z,101440.28
2022-09-11T23:30:07.234Z,101438.31
2022-09-11T23:32:41.189Z,101451.19
2022-09-11T23:35:14.546Z,101453.94
2022-09-11T23:37:45.562Z,101456.06
2022-09-11T23:40:15.377Z,101450.97
2022-09-11T23:42:44.774Z,101457.63
2022-09-11T23:45:16.618Z,101466.16
2022-09-11T23:47:46.074Z,101465.00
2022-09-11T23:50:18.277Z,101466.19
2022-09-11T23:52:48.687Z,101470.13
2022-09-11T23:55:19.152Z,101475.88
2022-09-11T23:57:48.542Z,101474.00
